createdAt,value
2023-03-29T00:01:10.187Z,5.60
2023-03-29T00:03:39.836Z,7.00
2023-03-29T00:06:15.158Z,8.77
2023-03-29T00:08:46.069Z,7.70
2023-03-29T00:11:14.446Z,5.65
2023-03-29T00:13:42.942Z,6.85
2023-03-29T00:16:12.988Z,7.22
2023-03-29T00:18:41.478Z,4.70
2023-03-29T00:21:12.846Z,8.40
2023-03-29T00:23:41.339Z,6.50
2023-03-29T00:26:09.629Z,5.85
2023-03-29T00:28:37.916Z,7.47
2023-03-29T00:31:10.023Z,6.43
2023-03-29T00:33:38.833Z,7.45
2023-03-29T00:36:10.835Z,8.25
2023-03-29T00:38:39.772Z,7.22
2023-03-29T00:41:09.988Z,6.18
2023-03-29T00:43:59.009Z,7.10
2023-03-29T00:46:29.992Z,10.55
2023-03-29T00:49:04.566Z,6.90
2023-03-29T00:51:37.462Z,8.05
2023-03-29T00:54:08.050Z,7.85
2023-03-29T00:56:40.896Z,9.18
2023-03-29T00:59:14.634Z,5.85
2023-03-29T01:01:50.395Z,6.32
2023-03-29T01:04:29.635Z,5.63
2023-03-29T01:07:04.894Z,10.45
2023-03-29T01:09:37.962Z,7.60
2023-03-29T01:12:14.638Z,6.88
2023-03-29T01:14:47.780Z,8.40
2023-03-29T01:17:16.131Z,7.63
2023-03-29T01:19:48.721Z,8.25
2023-03-29T01:22:31.192Z,8.95
2023-03-29T01:25:12.598Z,7.25
2023-03-29T01:28:02.458Z,6.38
2023-03-29T01:30:35.682Z,7.93
2023-03-29T01:33:07.625Z,7.03
2023-03-29T01:35:43.729Z,6.55
2023-03-29T01:38:16.926Z,6.95
2023-03-29T01:40:45.307Z,7.05
2023-03-29T01:43:26.067Z,7.47
2023-03-29T01:46:03.104Z,8.57
2023-03-29T01:48:36.575Z,7.03
2023-03-29T01:51:10.010Z,6.30
2023-03-29T01:53:44.355Z,6.07
2023-03-29T01:56:16.313Z,7.43
2023-03-29T01:58:50.452Z,8.35
2023-03-29T02:01:24.017Z,8.43
2023-03-29T02:03:56.551Z,7.95
2023-03-29T02:06:29.210Z,9.57
2023-03-29T02:08:58.000Z,13.93
2023-03-29T02:11:29.445Z,7.22
2023-03-29T02:13:59.645Z,11.18
2023-03-29T02:16:28.673Z,12.38
2023-03-29T02:18:58.647Z,6.18
2023-03-29T02:21:32.233Z,8.05
2023-03-29T02:24:06.447Z,7.55
2023-03-29T02:26:34.950Z,7.95
2023-03-29T02:29:05.118Z,6.38
2023-03-29T02:31:39.359Z,9.18
2023-03-29T02:34:16.020Z,10.15
2023-03-29T02:36:49.967Z,12.18
2023-03-29T02:39:19.888Z,9.45
2023-03-29T02:41:51.219Z,9.98
2023-03-29T02:44:24.228Z,8.20
2023-03-29T02:46:57.620Z,8.30
2023-03-29T02:49:26.483Z,8.73
2023-03-29T02:51:58.634Z,9.13
2023-03-29T02:54:31.633Z,8.45
2023-03-29T02:57:02.692Z,9.48
2023-03-29T02:59:33.412Z,9.57
2023-03-29T03:02:03.257Z,7.78
2023-03-29T03:04:31.817Z,8.95
2023-03-29T03:07:00.126Z,9.43
2023-03-29T03:09:28.635Z,11.27
2023-03-29T03:11:56.902Z,7.78
2023-03-29T03:14:25.205Z,7.97
2023-03-29T03:16:55.176Z,6.85
2023-03-29T03:19:24.197Z,9.05
2023-03-29T03:21:52.581Z,8.23
2023-03-29T03:24:20.959Z,8.73
2023-03-29T03:26:50.066Z,7.55
2023-03-29T03:29:19.062Z,11.10
2023-03-29T03:31:47.723Z,7.80
2023-03-29T03:34:17.597Z,7.68
2023-03-29T03:36:47.419Z,7.88
2023-03-29T03:39:15.729Z,8.80
2023-03-29T03:41:44.090Z,8.60
2023-03-29T03:44:13.197Z,10.80
2023-03-29T03:46:41.572Z,10.77
2023-03-29T03:49:09.893Z,8.25
2023-03-29T03:51:39.757Z,9.68
2023-03-29T03:54:08.164Z,8.80
2023-03-29T03:56:37.237Z,9.77
2023-03-29T03:59:05.879Z,11.68
2023-03-29T04:01:35.432Z,9.73
2023-03-29T04:04:04.701Z,9.13
2023-03-29T04:06:33.661Z,11.90
2023-03-29T04:09:03.587Z,9.30
2023-03-29T04:11:32.093Z,10.48
2023-03-29T04:14:00.449Z,10.60
2023-03-29T04:16:29.294Z,9.10
2023-03-29T04:18:57.805Z,7.13
2023-03-29T04:21:26.318Z,12.52
2023-03-29T04:23:54.616Z,15.95
2023-03-29T04:26:24.316Z,9.10
2023-03-29T04:28:52.669Z,9.55
2023-03-29T04:31:21.121Z,12.80
2023-03-29T04:33:49.679Z,10.98
2023-03-29T04:36:18.366Z,9.98
2023-03-29T04:38:48.010Z,10.07
2023-03-29T04:41:16.880Z,13.73
2023-03-29T04:43:47.721Z,9.18
2023-03-29T04:46:16.593Z,11.18
2023-03-29T04:48:45.030Z,8.88
2023-03-29T04:51:13.529Z,10.27
2023-03-29T04:53:41.836Z,16.70
2023-03-29T04:56:11.046Z,11.43
2023-03-29T04:58:39.351Z,12.38
2023-03-29T05:01:09.238Z,13.15
2023-03-29T05:03:37.582Z,14.35
2023-03-29T05:06:07.221Z,11.05
2023-03-29T05:08:39.036Z,7.72
2023-03-29T05:11:08.415Z,12.95
2023-03-29T05:13:37.210Z,10.45
2023-03-29T05:16:06.860Z,12.85
2023-03-29T05:18:37.044Z,11.52
2023-03-29T05:21:06.414Z,11.93
2023-03-29T05:23:35.412Z,11.07
2023-03-29T05:26:03.837Z,12.55
2023-03-29T05:28:33.752Z,13.20
2023-03-29T05:31:04.587Z,14.93
2023-03-29T05:33:33.746Z,11.70
2023-03-29T05:36:06.470Z,9.50
2023-03-29T05:38:35.930Z,14.90
2023-03-29T05:41:04.586Z,11.73
2023-03-29T05:43:33.628Z,10.70
2023-03-29T05:46:02.329Z,12.55
2023-03-29T05:48:31.057Z,11.93
2023-03-29T05:50:59.427Z,10.50
2023-03-29T05:53:29.247Z,14.68
2023-03-29T05:55:57.535Z,10.98
2023-03-29T05:58:28.571Z,14.18
2023-03-29T06:00:56.885Z,12.15
2023-03-29T06:03:27.637Z,11.60
2023-03-29T06:06:02.424Z,15.65
2023-03-29T06:08:33.192Z,18.02
2023-03-29T06:11:05.076Z,15.10
2023-03-29T06:13:34.733Z,12.55
2023-03-29T06:16:04.275Z,11.80
2023-03-29T06:18:32.797Z,13.80
2023-03-29T06:21:02.193Z,13.95
2023-03-29T06:23:32.651Z,10.10
2023-03-29T06:26:01.523Z,11.75
2023-03-29T06:28:30.143Z,13.93
2023-03-29T06:31:02.739Z,12.65
2023-03-29T06:33:32.609Z,15.70
2023-03-29T06:36:01.114Z,13.25
2023-03-29T06:38:31.075Z,14.35
2023-03-29T06:41:04.170Z,12.07
2023-03-29T06:43:34.867Z,16.30
2023-03-29T06:46:03.633Z,12.43
2023-03-29T06:48:31.947Z,16.83
2023-03-29T06:51:00.912Z,15.82
2023-03-29T06:53:31.418Z,13.55
2023-03-29T06:56:01.098Z,15.65
2023-03-29T06:58:29.430Z,15.07
2023-03-29T07:01:02.563Z,17.08
2023-03-29T07:03:31.499Z,15.50
2023-03-29T07:06:04.386Z,17.92
2023-03-29T07:08:35.299Z,14.35
2023-03-29T07:11:04.390Z,14.32
2023-03-29T07:13:33.073Z,13.93
2023-03-29T07:16:01.628Z,14.35
2023-03-29T07:18:30.079Z,14.98
2023-03-29T07:20:58.492Z,16.25
2023-03-29T07:23:26.863Z,14.88
2023-03-29T07:25:56.606Z,16.00
2023-03-29T07:28:24.986Z,14.57
2023-03-29T07:30:55.015Z,13.90
2023-03-29T07:33:23.501Z,14.45
2023-03-29T07:35:51.962Z,15.52
2023-03-29T07:38:20.607Z,14.88
2023-03-29T07:40:49.131Z,19.05
2023-03-29T07:43:19.066Z,16.33
2023-03-29T07:45:48.496Z,13.75
2023-03-29T07:48:17.881Z,13.38
2023-03-29T07:50:46.850Z,15.05
2023-03-29T07:53:15.554Z,18.73
2023-03-29T07:55:47.649Z,16.27
2023-03-29T07:58:18.179Z,18.90
2023-03-29T08:00:46.546Z,12.85
2023-03-29T08:03:16.140Z,16.00
2023-03-29T08:05:45.048Z,17.70
2023-03-29T08:08:14.120Z,13.05
2023-03-29T08:10:42.754Z,15.80
2023-03-29T08:13:11.958Z,16.10
2023-03-29T08:15:46.271Z,14.18
2023-03-29T08:18:14.687Z,13.80
2023-03-29T08:20:43.330Z,16.52
2023-03-29T08:23:11.787Z,13.00
2023-03-29T08:25:40.275Z,18.25
2023-03-29T08:28:08.648Z,15.15
2023-03-29T08:30:37.191Z,15.77
2023-03-29T08:33:07.134Z,18.13
2023-03-29T08:35:35.764Z,16.42
2023-03-29T08:38:04.264Z,14.13
2023-03-29T08:40:32.743Z,14.60
2023-03-29T08:43:44.607Z,18.58
2023-03-29T08:46:33.074Z,15.02
2023-03-29T08:49:07.811Z,16.08
2023-03-29T08:51:40.525Z,12.73
2023-03-29T08:54:14.935Z,16.73
2023-03-29T08:56:46.492Z,17.88
2023-03-29T08:59:20.885Z,19.27
2023-03-29T09:01:51.832Z,17.95
2023-03-29T09:04:27.138Z,16.92
2023-03-29T09:06:55.838Z,18.17
2023-03-29T09:09:31.075Z,20.02
2023-03-29T09:12:15.374Z,19.05
2023-03-29T09:15:06.738Z,17.20
2023-03-29T09:17:49.790Z,18.67
2023-03-29T09:20:31.640Z,20.92
2023-03-29T09:23:18.847Z,16.40
2023-03-29T09:25:56.120Z,17.83
2023-03-29T09:28:35.171Z,18.67
2023-03-29T09:31:13.771Z,18.65
2023-03-29T09:33:46.017Z,18.17
2023-03-29T09:36:20.649Z,17.35
2023-03-29T09:38:54.276Z,15.88
2023-03-29T09:41:28.525Z,15.05
2023-03-29T09:44:02.041Z,18.30
2023-03-29T09:46:37.610Z,18.70
2023-03-29T09:49:13.102Z,14.63
2023-03-29T09:51:44.160Z,17.25
2023-03-29T09:54:13.241Z,17.65
2023-03-29T09:56:44.383Z,15.50
2023-03-29T09:59:13.861Z,16.08
2023-03-29T10:01:46.294Z,17.85
2023-03-29T10:04:16.867Z,18.75
2023-03-29T10:06:50.572Z,20.92
2023-03-29T10:09:22.676Z,19.42
2023-03-29T10:11:54.696Z,21.08
2023-03-29T10:14:34.424Z,18.70
2023-03-29T10:17:07.624Z,15.68
2023-03-29T10:19:37.398Z,18.38
2023-03-29T10:22:10.050Z,20.48
2023-03-29T10:24:38.414Z,17.45
2023-03-29T10:27:11.993Z,20.58
2023-03-29T10:29:43.324Z,19.23
2023-03-29T10:32:27.311Z,16.10
2023-03-29T10:34:56.558Z,16.38
2023-03-29T10:37:27.058Z,19.52
2023-03-29T10:39:55.993Z,19.65
2023-03-29T10:42:27.396Z,18.10
2023-03-29T10:44:58.440Z,19.45
2023-03-29T10:47:27.916Z,20.98
2023-03-29T10:49:59.712Z,20.60
2023-03-29T10:52:31.449Z,18.48
2023-03-29T10:55:00.618Z,19.08
2023-03-29T10:57:45.679Z,19.92
2023-03-29T11:00:19.879Z,17.08
2023-03-29T11:03:30.626Z,18.00
2023-03-29T11:06:07.250Z,19.15
2023-03-29T11:08:56.133Z,18.13
2023-03-29T11:11:44.363Z,19.00
2023-03-29T11:14:25.581Z,17.85
2023-03-29T11:17:08.794Z,16.50
2023-03-29T11:19:57.720Z,16.73
2023-03-29T11:22:39.313Z,21.10
2023-03-29T11:25:33.470Z,18.77
2023-03-29T11:28:12.853Z,17.27
2023-03-29T11:30:48.179Z,14.88
2023-03-29T11:33:35.281Z,15.65
2023-03-29T11:36:10.853Z,14.57
2023-03-29T11:38:45.296Z,15.88
2023-03-29T11:41:20.163Z,15.98
2023-03-29T11:43:55.046Z,13.70
2023-03-29T11:46:28.455Z,14.85
2023-03-29T11:49:04.455Z,17.13
2023-03-29T11:51:37.932Z,19.02
2023-03-29T11:54:15.172Z,16.70
2023-03-29T11:56:49.643Z,17.10
2023-03-29T11:59:24.846Z,17.75
2023-03-29T12:01:57.390Z,19.27
2023-03-29T12:04:32.371Z,17.90
2023-03-29T12:07:11.312Z,21.25
2023-03-29T12:09:45.024Z,17.83
2023-03-29T12:12:25.104Z,19.95
2023-03-29T12:15:02.709Z,17.67
2023-03-29T12:17:35.819Z,16.92
2023-03-29T12:20:21.206Z,18.25
2023-03-29T12:22:50.968Z,15.73
2023-03-29T12:25:25.556Z,20.58
2023-03-29T12:28:15.374Z,17.92
2023-03-29T12:31:13.687Z,17.15
2023-03-29T12:34:12.733Z,19.92
2023-03-29T12:37:07.612Z,19.90
2023-03-29T12:39:40.164Z,20.33
2023-03-29T12:42:17.943Z,20.58
2023-03-29T12:45:00.186Z,20.42
2023-03-29T12:47:44.605Z,22.15
2023-03-29T12:50:31.246Z,20.73
2023-03-29T12:53:14.589Z,20.33
2023-03-29T12:55:56.306Z,18.45
2023-03-29T12:58:43.058Z,21.45
2023-03-29T13:01:43.549Z,21.15
2023-03-29T13:04:21.763Z,24.17
2023-03-29T13:07:10.265Z,21.98
2023-03-29T13:09:53.020Z,20.58
2023-03-29T13:12:27.597Z,16.92
2023-03-29T13:14:59.194Z,19.80
2023-03-29T13:17:38.450Z,18.67
2023-03-29T13:20:29.559Z,20.92
2023-03-29T13:23:27.581Z,20.33
2023-03-29T13:26:14.531Z,19.83
2023-03-29T13:29:04.812Z,18.67
2023-03-29T13:31:41.344Z,22.05
2023-03-29T13:34:27.055Z,18.92
2023-03-29T13:37:03.962Z,19.65
2023-03-29T13:39:36.849Z,21.13
2023-03-29T13:42:20.643Z,20.48
2023-03-29T13:44:53.791Z,19.77
2023-03-29T13:47:58.823Z,23.90
2023-03-29T13:50:41.708Z,17.23
2023-03-29T13:53:21.963Z,23.80
2023-03-29T13:55:54.417Z,21.33
2023-03-29T13:58:34.558Z,21.52
2023-03-29T14:01:11.121Z,17.58
2023-03-29T14:03:46.091Z,17.85
2023-03-29T14:06:24.475Z,17.08
2023-03-29T14:08:54.437Z,18.02
2023-03-29T14:11:27.292Z,19.10
2023-03-29T14:13:57.851Z,16.40
2023-03-29T14:16:31.709Z,12.77
2023-03-29T14:19:01.228Z,17.33
2023-03-29T14:21:31.658Z,12.93
2023-03-29T14:24:03.381Z,16.85
2023-03-29T14:26:36.032Z,13.88
2023-03-29T14:29:11.694Z,12.02
2023-03-29T14:31:42.744Z,13.65
2023-03-29T14:34:15.990Z,12.93
2023-03-29T14:36:50.064Z,12.90
2023-03-29T14:39:21.157Z,14.95
2023-03-29T14:41:53.093Z,12.75
2023-03-29T14:44:24.862Z,12.68
2023-03-29T14:46:53.519Z,12.48
2023-03-29T14:49:24.961Z,11.15
2023-03-29T14:51:55.754Z,10.35
2023-03-29T14:54:28.232Z,11.45
2023-03-29T14:56:58.167Z,10.27
2023-03-29T14:59:38.209Z,12.05
2023-03-29T15:02:24.757Z,12.57
2023-03-29T15:05:03.535Z,12.95
2023-03-29T15:07:36.553Z,11.15
2023-03-29T15:10:07.334Z,11.77
2023-03-29T15:12:37.939Z,11.88
2023-03-29T15:15:12.064Z,11.85
2023-03-29T15:17:51.868Z,11.88
2023-03-29T15:20:27.486Z,9.55
2023-03-29T15:23:01.071Z,11.52
2023-03-29T15:25:34.199Z,9.65
2023-03-29T15:28:02.726Z,10.70
2023-03-29T15:30:36.629Z,7.60
2023-03-29T15:33:22.103Z,10.13
2023-03-29T15:35:53.214Z,10.32
2023-03-29T15:38:27.692Z,7.60
2023-03-29T15:41:06.474Z,9.52
2023-03-29T15:43:35.154Z,9.82
2023-03-29T15:46:03.874Z,8.73
2023-03-29T15:48:33.893Z,6.93
2023-03-29T15:51:06.177Z,7.38
2023-03-29T15:53:43.730Z,9.30
2023-03-29T15:56:29.385Z,8.40
2023-03-29T15:58:57.943Z,7.35
2023-03-29T16:01:34.814Z,8.82
2023-03-29T16:04:04.759Z,8.20
2023-03-29T16:06:38.880Z,8.45
2023-03-29T16:09:09.241Z,7.47
2023-03-29T16:11:37.628Z,7.10
2023-03-29T16:14:18.044Z,8.85
2023-03-29T16:16:46.789Z,6.47
2023-03-29T16:19:15.148Z,8.38
2023-03-29T16:21:44.990Z,8.32
2023-03-29T16:24:18.231Z,6.90
2023-03-29T16:26:48.226Z,11.35
2023-03-29T16:29:17.371Z,8.35
2023-03-29T16:31:46.543Z,7.93
2023-03-29T16:34:16.256Z,7.88
2023-03-29T16:36:45.153Z,8.13
2023-03-29T16:39:15.274Z,8.75
2023-03-29T16:41:49.228Z,6.53
2023-03-29T16:44:23.019Z,6.55
2023-03-29T16:46:53.925Z,7.65
2023-03-29T16:49:22.590Z,9.93
2023-03-29T16:51:51.423Z,9.15
2023-03-29T16:54:21.195Z,11.30
2023-03-29T16:56:49.717Z,11.35
2023-03-29T16:59:18.133Z,9.63
2023-03-29T17:01:46.935Z,9.60
2023-03-29T17:04:15.503Z,9.25
2023-03-29T17:06:44.306Z,7.97
2023-03-29T17:09:12.591Z,7.45
2023-03-29T17:11:42.856Z,7.10
2023-03-29T17:14:11.386Z,9.02
2023-03-29T17:16:40.145Z,8.40
2023-03-29T17:19:09.322Z,9.75
2023-03-29T17:21:37.612Z,7.90
2023-03-29T17:24:06.651Z,8.60
2023-03-29T17:26:35.083Z,8.57
2023-03-29T17:29:05.210Z,6.95
2023-03-29T17:31:34.917Z,11.38
2023-03-29T17:34:03.493Z,8.88
2023-03-29T17:36:33.757Z,8.25
2023-03-29T17:39:02.959Z,10.32
2023-03-29T17:41:31.563Z,10.15
2023-03-29T17:43:59.875Z,10.85
2023-03-29T17:46:30.284Z,15.27
2023-03-29T17:48:59.271Z,11.10
2023-03-29T17:51:28.492Z,8.13
2023-03-29T17:53:57.188Z,10.10
2023-03-29T17:56:26.620Z,8.57
2023-03-29T17:58:55.140Z,9.90
2023-03-29T18:01:23.635Z,12.07
2023-03-29T18:03:54.193Z,11.13
2023-03-29T18:06:22.627Z,14.00
2023-03-29T18:08:53.186Z,11.45
2023-03-29T18:11:24.916Z,14.45
2023-03-29T18:13:54.588Z,15.02
2023-03-29T18:16:31.965Z,11.00
2023-03-29T18:19:01.961Z,12.10
2023-03-29T18:21:30.320Z,10.52
2023-03-29T18:23:58.750Z,10.88
2023-03-29T18:26:28.557Z,10.43
2023-03-29T18:28:56.897Z,14.70
2023-03-29T18:31:25.422Z,11.45
2023-03-29T18:33:54.014Z,12.25
2023-03-29T18:36:25.283Z,14.05
2023-03-29T18:38:55.757Z,12.25
2023-03-29T18:41:28.259Z,9.98
2023-03-29T18:43:57.414Z,22.65
2023-03-29T18:46:30.278Z,21.17
2023-03-29T18:48:58.976Z,15.00
2023-03-29T18:51:29.368Z,12.07
2023-03-29T18:53:58.261Z,15.68
2023-03-29T18:56:27.745Z,13.68
2023-03-29T18:58:56.368Z,11.75
2023-03-29T19:01:25.288Z,13.40
2023-03-29T19:03:54.283Z,14.10
2023-03-29T19:06:22.725Z,16.75
2023-03-29T19:08:54.043Z,14.70
2023-03-29T19:11:23.001Z,16.98
2023-03-29T19:13:52.292Z,16.50
2023-03-29T19:16:21.199Z,12.88
2023-03-29T19:18:49.778Z,17.15
2023-03-29T19:21:18.175Z,13.23
2023-03-29T19:23:46.531Z,13.20
2023-03-29T19:26:17.039Z,11.35
2023-03-29T19:28:45.634Z,14.88
2023-03-29T19:31:14.448Z,15.88
2023-03-29T19:33:46.094Z,15.00
2023-03-29T19:36:14.505Z,12.10
2023-03-29T19:38:43.125Z,14.43
2023-03-29T19:41:12.208Z,16.10
2023-03-29T19:43:41.849Z,15.63
2023-03-29T19:46:13.555Z,14.77
2023-03-29T19:48:41.950Z,11.73
2023-03-29T19:51:10.580Z,13.77
2023-03-29T19:53:39.896Z,14.55
2023-03-29T19:56:11.165Z,13.73
2023-03-29T19:58:41.257Z,13.88
2023-03-29T20:01:09.715Z,12.52
2023-03-29T20:03:39.047Z,17.20
2023-03-29T20:06:09.931Z,13.40
2023-03-29T20:08:39.014Z,16.15
2023-03-29T20:11:10.326Z,16.05
2023-03-29T20:13:42.097Z,16.08
2023-03-29T20:16:14.279Z,16.08
2023-03-29T20:18:44.864Z,12.70
2023-03-29T20:21:16.644Z,17.05
2023-03-29T20:23:45.844Z,12.68
2023-03-29T20:26:15.788Z,15.00
2023-03-29T20:28:45.849Z,11.23
2023-03-29T20:31:14.528Z,16.35
2023-03-29T20:33:44.478Z,11.88
2023-03-29T20:36:13.579Z,11.10
2023-03-29T20:38:42.045Z,12.43
2023-03-29T20:41:10.911Z,15.88
2023-03-29T20:43:40.948Z,12.95
2023-03-29T20:46:18.516Z,10.45
2023-03-29T20:48:53.424Z,14.43
2023-03-29T20:51:22.598Z,16.00
2023-03-29T20:53:51.013Z,15.07
2023-03-29T20:56:20.998Z,14.93
2023-03-29T20:58:49.453Z,11.55
2023-03-29T21:01:22.030Z,14.25
2023-03-29T21:03:50.966Z,11.20
2023-03-29T21:06:20.549Z,12.80
2023-03-29T21:08:53.486Z,14.40
2023-03-29T21:11:23.043Z,15.40
2023-03-29T21:13:52.769Z,13.52
2023-03-29T21:16:23.129Z,9.88
2023-03-29T21:18:51.957Z,12.65
2023-03-29T21:21:22.645Z,14.85
2023-03-29T21:23:51.385Z,14.05
2023-03-29T21:26:19.945Z,11.18
2023-03-29T21:28:48.707Z,11.15
2023-03-29T21:31:17.166Z,13.68
2023-03-29T21:33:46.838Z,9.20
2023-03-29T21:36:15.377Z,13.43
2023-03-29T21:38:43.948Z,11.90
2023-03-29T21:41:12.805Z,13.45
2023-03-29T21:43:41.719Z,14.50
2023-03-29T21:46:11.087Z,12.32
2023-03-29T21:48:39.787Z,16.92
2023-03-29T21:51:10.610Z,13.32
2023-03-29T21:53:39.064Z,13.55
2023-03-29T21:56:08.998Z,13.55
2023-03-29T21:58:37.346Z,11.93
2023-03-29T22:01:07.450Z,14.48
2023-03-29T22:03:35.740Z,13.82
2023-03-29T22:06:08.056Z,14.00
2023-03-29T22:08:39.085Z,11.35
2023-03-29T22:11:09.807Z,11.50
2023-03-29T22:13:38.879Z,13.18
2023-03-29T22:16:08.927Z,15.80
2023-03-29T22:18:43.727Z,11.13
2023-03-29T22:21:15.155Z,13.63
2023-03-29T22:23:47.601Z,11.48
2023-03-29T22:26:18.304Z,12.95
2023-03-29T22:28:46.840Z,11.90
2023-03-29T22:31:18.374Z,11.43
2023-03-29T22:33:47.424Z,15.25
2023-03-29T22:36:18.114Z,8.88
2023-03-29T22:38:48.823Z,11.75
2023-03-29T22:41:18.727Z,13.23
2023-03-29T22:43:47.401Z,9.93
2023-03-29T22:46:15.909Z,11.05
2023-03-29T22:48:44.380Z,9.65
2023-03-29T22:51:12.814Z,11.48
2023-03-29T22:53:41.539Z,10.77
2023-03-29T22:56:11.547Z,10.07
2023-03-29T22:58:40.223Z,9.85
2023-03-29T23:01:08.873Z,8.30
2023-03-29T23:03:37.827Z,8.32
2023-03-29T23:06:07.762Z,8.60
2023-03-29T23:08:36.857Z,9.73
2023-03-29T23:11:07.379Z,8.43
2023-03-29T23:13:37.292Z,6.15
2023-03-29T23:16:06.287Z,8.68
2023-03-29T23:18:37.424Z,6.85
2023-03-29T23:21:07.471Z,11.43
2023-03-29T23:23:36.874Z,8.60
2023-03-29T23:26:06.429Z,9.23
2023-03-29T23:28:36.357Z,8.20
2023-03-29T23:31:09.516Z,5.65
2023-03-29T23:33:40.444Z,7.13
2023-03-29T23:36:11.626Z,11.85
2023-03-29T23:38:42.218Z,6.43
2023-03-29T23:41:12.945Z,8.40
2023-03-29T23:43:47.248Z,7.50
2023-03-29T23:46:18.948Z,6.60
2023-03-29T23:48:49.084Z,8.30
2023-03-29T23:51:18.929Z,11.93
2023-03-29T23:53:47.428Z,7.13
2023-03-29T23:56:16.246Z,7.70
2023-03-29T23:58:46.129Z,8.52
